sensor_id;sensor_type;location;lat;lon;timestamp;pressure;altitude;pressure_sealevel;temperature;humidity
7668;BME280;3876;42.204;24.686;2023-05-07T00:02:03;99717.78;;;15.03;100.00
7668;BME280;3876;42.204;24.686;2023-05-07T00:04:30;99710.84;;;15.05;100.00
7668;BME280;3876;42.204;24.686;2023-05-07T00:07:01;99714.00;;;15.11;100.00
7668;BME280;3876;42.204;24.686;2023-05-07T00:09:28;99708.00;;;15.11;100.00
7668;BME280;3876;42.204;24.686;2023-05-07T00:11:54;99709.09;;;15.05;100.00
7668;BME280;3876;42.204;24.686;2023-05-07T00:14:22;99703.22;;;15.02;100.00
7668;BME280;3876;42.204;24.686;2023-05-07T00:16:49;99711.31;;;15.13;100.00
7668;BME280;3876;42.204;24.686;2023-05-07T00:19:16;99716.22;;;15.19;100.00
7668;BME280;3876;42.204;24.686;2023-05-07T00:21:43;99711.50;;;15.29;100.00
7668;BME280;3876;42.204;24.686;2023-05-07T00:24:09;99713.59;;;15.39;100.00
7668;BME280;3876;42.204;24.686;2023-05-07T00:26:36;99715.91;;;15.45;100.00
7668;BME280;3876;42.204;24.686;2023-05-07T00:29:03;99716.44;;;15.53;100.00
7668;BME280;3876;42.204;24.686;2023-05-07T00:31:31;99712.94;;;15.54;100.00
7668;BME280;3876;42.204;24.686;2023-05-07T00:33:57;99717.16;;;15.57;100.00
7668;BME280;3876;42.204;24.686;2023-05-07T00:36:24;99709.31;;;15.58;100.00
7668;BME280;3876;42.204;24.686;2023-05-07T00:38:51;99712.78;;;15.57;100.00
7668;BME280;3876;42.204;24.686;2023-05-07T00:41:18;99717.28;;;15.54;100.00
7668;BME280;3876;42.204;24.686;2023-05-07T00:43:45;99712.31;;;15.49;100.00
7668;BME280;3876;42.204;24.686;2023-05-07T00:46:13;99716.00;;;15.44;100.00
7668;BME280;3876;42.204;24.686;2023-05-07T00:48:42;99718.50;;;15.45;100.00
7668;BME280;3876;42.204;24.686;2023-05-07T00:51:09;99723.66;;;15.45;100.00
7668;BME280;3876;42.204;24.686;2023-05-07T00:53:37;99721.88;;;15.47;100.00
7668;BME280;3876;42.204;24.686;2023-05-07T00:56:05;99718.25;;;15.51;100.00
7668;BME280;3876;42.204;24.686;2023-05-07T00:58:32;99719.09;;;15.52;100.00
7668;BME280;3876;42.204;24.686;2023-05-07T01:00:59;99720.69;;;15.54;100.00
7668;BME280;3876;42.204;24.686;2023-05-07T01:03:26;99713.63;;;15.58;100.00
7668;BME280;3876;42.204;24.686;2023-05-07T01:05:55;99708.94;;;15.47;100.00
7668;BME280;3876;42.204;24.686;2023-05-07T01:08:24;99724.25;;;15.52;100.00
7668;BME280;3876;42.204;24.686;2023-05-07T01:10:54;99720.69;;;15.54;100.00
7668;BME280;3876;42.204;24.686;2023-05-07T01:13:21;99718.19;;;15.53;100.00
7668;BME280;3876;42.204;24.686;2023-05-07T01:15:47;99718.06;;;15.56;100.00
7668;BME280;3876;42.204;24.686;2023-05-07T01:18:14;99721.34;;;15.59;100.00
7668;BME280;3876;42.204;24.686;2023-05-07T01:20:41;99723.41;;;15.51;100.00
7668;BME280;3876;42.204;24.686;2023-05-07T01:23:10;99721.16;;;15.44;100.00
7668;BME280;3876;42.204;24.686;2023-05-07T01:25:37;99716.94;;;15.41;100.00
7668;BME280;3876;42.204;24.686;2023-05-07T01:28:04;99718.06;;;15.36;100.00
7668;BME280;3876;42.204;24.686;2023-05-07T01:30:32;99719.47;;;15.24;100.00
7668;BME280;3876;42.204;24.686;2023-05-07T01:33:04;99722.53;;;15.32;100.00
7668;BME280;3876;42.204;24.686;2023-05-07T01:35:37;99722.94;;;15.42;100.00
7668;BME280;3876;42.204;24.686;2023-05-07T01:38:04;99719.22;;;15.49;100.00
7668;BME280;3876;42.204;24.686;2023-05-07T01:40:33;99715.66;;;15.51;100.00
7668;BME280;3876;42.204;24.686;2023-05-07T01:43:00;99716.75;;;15.46;100.00
7668;BME280;3876;42.204;24.686;2023-05-07T01:45:28;99706.03;;;15.16;100.00
7668;BME280;3876;42.204;24.686;2023-05-07T01:47:57;99714.44;;;15.21;100.00
7668;BME280;3876;42.204;24.686;2023-05-07T01:50:25;99708.00;;;15.11;100.00
7668;BME280;3876;42.204;24.686;2023-05-07T01:52:52;99702.28;;;15.03;100.00
7668;BME280;3876;42.204;24.686;2023-05-07T01:55:19;99709.41;;;15.18;100.00
7668;BME280;3876;42.204;24.686;2023-05-07T01:57:47;99715.31;;;15.20;100.00
7668;BME280;3876;42.204;24.686;2023-05-07T02:00:14;99703.38;;;15.17;100.00
7668;BME280;3876;42.204;24.686;2023-05-07T02:02:41;99706.97;;;14.95;100.00
7668;BME280;3876;42.204;24.686;2023-05-07T02:05:08;99702.69;;;14.94;100.00
7668;BME280;3876;42.204;24.686;2023-05-07T02:07:35;99697.41;;;14.77;100.00
7668;BME280;3876;42.204;24.686;2023-05-07T02:10:01;99692.03;;;14.83;100.00
7668;BME280;3876;42.204;24.686;2023-05-07T02:12:28;99689.94;;;14.70;100.00
7668;BME280;3876;42.204;24.686;2023-05-07T02:14:56;99691.94;;;14.64;100.00
7668;BME280;3876;42.204;24.686;2023-05-07T02:17:23;99686.31;;;14.54;100.00
7668;BME280;3876;42.204;24.686;2023-05-07T02:19:50;99698.19;;;14.58;100.00
7668;BME280;3876;42.204;24.686;2023-05-07T02:22:17;99699.16;;;14.56;100.00
7668;BME280;3876;42.204;24.686;2023-05-07T02:24:44;99686.34;;;14.33;100.00
7668;BME280;3876;42.204;24.686;2023-05-07T02:27:10;99693.09;;;14.37;100.00
7668;BME280;3876;42.204;24.686;2023-05-07T02:29:37;99698.97;;;14.40;100.00
7668;BME280;3876;42.204;24.686;2023-05-07T02:32:06;99699.47;;;14.48;100.00
7668;BME280;3876;42.204;24.686;2023-05-07T02:34:32;99705.16;;;14.56;100.00
7668;BME280;3876;42.204;24.686;2023-05-07T02:36:59;99699.22;;;14.54;100.00
7668;BME280;3876;42.204;24.686;2023-05-07T02:39:26;99690.59;;;14.55;100.00
7668;BME280;3876;42.204;24.686;2023-05-07T02:41:52;99690.47;;;14.58;100.00
7668;BME280;3876;42.204;24.686;2023-05-07T02:44:19;99682.72;;;14.58;100.00
7668;BME280;3876;42.204;24.686;2023-05-07T02:46:46;99689.22;;;14.67;100.00
7668;BME280;3876;42.204;24.686;2023-05-07T02:49:14;99685.84;;;14.66;100.00
7668;BME280;3876;42.204;24.686;2023-05-07T02:51:40;99687.63;;;14.64;100.00
7668;BME280;3876;42.204;24.686;2023-05-07T02:54:07;99682.59;;;14.61;100.00
7668;BME280;3876;42.204;24.686;2023-05-07T02:56:34;99683.38;;;14.63;100.00
7668;BME280;3876;42.204;24.686;2023-05-07T02:59:00;99683.25;;;14.66;100.00
7668;BME280;3876;42.204;24.686;2023-05-07T03:01:27;99676.31;;;14.67;100.00
7668;BME280;3876;42.204;24.686;2023-05-07T03:03:54;99672.84;;;14.68;100.00
7668;BME280;3876;42.204;24.686;2023-05-07T03:06:22;99673.06;;;14.63;100.00
7668;BME280;3876;42.204;24.686;2023-05-07T03:08:49;99678.31;;;14.60;100.00
7668;BME280;3876;42.204;24.686;2023-05-07T03:11:16;99679.38;;;14.56;100.00
7668;BME280;3876;42.204;24.686;2023-05-07T03:13:43;99678.22;;;14.63;100.00
7668;BME280;3876;42.204;24.686;2023-05-07T03:16:09;99679.97;;;14.63;100.00
7668;BME280;3876;42.204;24.686;2023-05-07T03:18:36;99684.13;;;14.65;100.00
7668;BME280;3876;42.204;24.686;2023-05-07T03:21:03;99692.78;;;14.64;100.00
7668;BME280;3876;42.204;24.686;2023-05-07T03:23:31;99694.50;;;14.64;100.00
7668;BME280;3876;42.204;24.686;2023-05-07T03:25:58;99689.44;;;14.62;100.00
7668;BME280;3876;42.204;24.686;2023-05-07T03:28:24;99684.28;;;14.62;100.00
7668;BME280;3876;42.204;24.686;2023-05-07T03:30:51;99691.22;;;14.60;100.00
7668;BME280;3876;42.204;24.686;2023-05-07T03:33:18;99688.59;;;14.62;100.00
7668;BME280;3876;42.204;24.686;2023-05-07T03:35:44;99691.16;;;14.62;100.00
7668;BME280;3876;42.204;24.686;2023-05-07T03:38:11;99687.63;;;14.64;100.00
7668;BME280;3876;42.204;24.686;2023-05-07T03:40:39;99691.22;;;14.60;100.00
7668;BME280;3876;42.204;24.686;2023-05-07T03:43:06;99690.47;;;14.58;100.00
7668;BME280;3876;42.204;24.686;2023-05-07T03:45:33;99681.16;;;14.54;100.00
7668;BME280;3876;42.204;24.686;2023-05-07T03:48:00;99685.25;;;14.60;100.00
7668;BME280;3876;42.204;24.686;2023-05-07T03:50:26;99675.88;;;14.57;100.00
7668;BME280;3876;42.204;24.686;2023-05-07T03:52:53;99696.03;;;14.69;100.00
7668;BME280;3876;42.204;24.686;2023-05-07T03:55:20;99690.59;;;14.76;100.00
7668;BME280;3876;42.204;24.686;2023-05-07T03:57:48;99691.88;;;14.86;100.00
7668;BME280;3876;42.204;24.686;2023-05-07T04:00:16;99690.50;;;14.97;100.00
7668;BME280;3876;42.204;24.686;2023-05-07T04:02:43;99690.81;;;15.10;100.00
7668;BME280;3876;42.204;24.686;2023-05-07T04:05:09;99696.69;;;15.13;100.00
7668;BME280;3876;42.204;24.686;2023-05-07T04:07:36;99685.94;;;15.22;100.00
7668;BME280;3876;42.204;24.686;2023-05-07T04:10:03;99701.72;;;15.35;100.00
7668;BME280;3876;42.204;24.686;2023-05-07T04:12:30;99692.53;;;15.48;100.00
7668;BME280;3876;42.204;24.686;2023-05-07T04:14:58;99692.00;;;15.60;100.00
7668;BME280;3876;42.204;24.686;2023-05-07T04:17:25;99699.03;;;15.75;100.00
7668;BME280;3876;42.204;24.686;2023-05-07T04:19:52;99687.97;;;15.91;100.00
7668;BME280;3876;42.204;24.686;2023-05-07T04:22:18;99695.84;;;16.06;100.00
7668;BME280;3876;42.204;24.686;2023-05-07T04:24:45;99700.44;;;16.18;100.00
7668;BME280;3876;42.204;24.686;2023-05-07T04:27:11;99701.25;;;16.19;100.00
7668;BME280;3876;42.204;24.686;2023-05-07T04:29:38;99697.63;;;16.23;100.00
7668;BME280;3876;42.204;24.686;2023-05-07T04:32:09;99689.09;;;16.21;100.00
7668;BME280;3876;42.204;24.686;2023-05-07T04:34:35;99704.03;;;16.50;100.00
7668;BME280;3876;42.204;24.686;2023-05-07T04:37:02;99688.16;;;16.58;100.00
7668;BME280;3876;42.204;24.686;2023-05-07T04:39:29;99693.94;;;16.80;100.00
7668;BME280;3876;42.204;24.686;2023-05-07T04:41:55;99702.34;;;17.01;100.00
7668;BME280;3876;42.204;24.686;2023-05-07T04:44:22;99706.44;;;17.22;100.00
7668;BME280;3876;42.204;24.686;2023-05-07T04:46:50;99713.97;;;17.42;100.00
7668;BME280;3876;42.204;24.686;2023-05-07T04:49:18;99706.19;;;17.59;99.58
7668;BME280;3876;42.204;24.686;2023-05-07T04:51:44;99711.47;;;17.73;99.25
7668;BME280;3876;42.204;24.686;2023-05-07T04:54:11;99696.06;;;17.86;99.09
7668;BME280;3876;42.204;24.686;2023-05-07T04:56:38;99704.47;;;18.21;99.35
7668;BME280;3876;42.204;24.686;2023-05-07T04:59:04;99713.25;;;18.48;97.58
7668;BME280;3876;42.204;24.686;2023-05-07T05:01:32;99711.72;;;18.75;94.95
7668;BME280;3876;42.204;24.686;2023-05-07T05:03:58;99722.50;;;18.98;95.14
7668;BME280;3876;42.204;24.686;2023-05-07T05:06:27;99711.50;;;19.22;92.77
7668;BME280;3876;42.204;24.686;2023-05-07T05:08:54;99716.91;;;19.48;91.23
7668;BME280;3876;42.204;24.686;2023-05-07T05:11:21;99716.19;;;19.72;90.35
7668;BME280;3876;42.204;24.686;2023-05-07T05:13:48;99714.84;;;19.93;88.00
7668;BME280;3876;42.204;24.686;2023-05-07T05:16:14;99716.72;;;20.18;88.12
7668;BME280;3876;42.204;24.686;2023-05-07T05:18:41;99720.28;;;20.44;87.37
7668;BME280;3876;42.204;24.686;2023-05-07T05:21:08;99720.63;;;20.65;86.29
7668;BME280;3876;42.204;24.686;2023-05-07T05:23:36;99720.97;;;20.85;83.86
7668;BME280;3876;42.204;24.686;2023-05-07T05:26:03;99723.16;;;21.04;83.47
7668;BME280;3876;42.204;24.686;2023-05-07T05:28:30;99724.56;;;21.10;82.64
7668;BME280;3876;42.204;24.686;2023-05-07T05:30:56;99727.03;;;21.24;82.42
7668;BME280;3876;42.204;24.686;2023-05-07T05:33:23;99718.72;;;21.19;79.89
7668;BME280;3876;42.204;24.686;2023-05-07T05:35:50;99736.22;;;21.42;81.83
7668;BME280;3876;42.204;24.686;2023-05-07T05:38:17;99743.47;;;21.62;78.86
7668;BME280;3876;42.204;24.686;2023-05-07T05:40:45;99738.84;;;21.78;78.48
7668;BME280;3876;42.204;24.686;2023-05-07T05:43:11;99739.47;;;21.94;79.54
7668;BME280;3876;42.204;24.686;2023-05-07T05:45:38;99739.47;;;21.94;77.77
7668;BME280;3876;42.204;24.686;2023-05-07T05:48:05;99741.63;;;22.01;75.65
7668;BME280;3876;42.204;24.686;2023-05-07T05:50:33;99743.00;;;22.06;78.71
7668;BME280;3876;42.204;24.686;2023-05-07T05:53:01;99742.94;;;22.19;77.82
7668;BME280;3876;42.204;24.686;2023-05-07T05:55:27;99752.84;;;22.14;76.80
7668;BME280;3876;42.204;24.686;2023-05-07T05:57:55;99746.03;;;22.24;76.35
7668;BME280;3876;42.204;24.686;2023-05-07T06:00:22;99741.50;;;22.49;76.17
7668;BME280;3876;42.204;24.686;2023-05-07T06:05:16;99750.06;;;22.75;73.33
7668;BME280;3876;42.204;24.686;2023-05-07T06:07:42;99759.63;;;22.87;72.79
7668;BME280;3876;42.204;24.686;2023-05-07T06:10:09;99759.91;;;23.07;73.28
7668;BME280;3876;42.204;24.686;2023-05-07T06:12:36;99757.06;;;23.10;71.74
7668;BME280;3876;42.204;24.686;2023-05-07T06:15:05;99764.19;;;23.30;69.26
7668;BME280;3876;42.204;24.686;2023-05-07T06:17:32;99763.47;;;23.17;69.35
7668;BME280;3876;42.204;24.686;2023-05-07T06:19:59;99760.38;;;23.12;69.50
7668;BME280;3876;42.204;24.686;2023-05-07T06:22:25;99759.84;;;23.41;69.62
7668;BME280;3876;42.204;24.686;2023-05-07T06:24:52;99760.78;;;23.63;68.01
7668;BME280;3876;42.204;24.686;2023-05-07T06:27:19;99758.06;;;23.64;66.10
7668;BME280;3876;42.204;24.686;2023-05-07T06:29:47;99758.91;;;23.65;66.21
7668;BME280;3876;42.204;24.686;2023-05-07T06:32:16;99760.06;;;23.83;66.16
7668;BME280;3876;42.204;24.686;2023-05-07T06:34:43;99750.34;;;23.51;66.22
7668;BME280;3876;42.204;24.686;2023-05-07T06:37:09;99752.69;;;23.66;66.61
7668;BME280;3876;42.204;24.686;2023-05-07T06:39:36;99755.06;;;23.91;65.63
7668;BME280;3876;42.204;24.686;2023-05-07T06:42:03;99755.63;;;24.17;67.04
7668;BME280;3876;42.204;24.686;2023-05-07T06:44:30;99751.25;;;24.38;64.82
7668;BME280;3876;42.204;24.686;2023-05-07T06:46:57;99736.63;;;24.56;64.89
7668;BME280;3876;42.204;24.686;2023-05-07T06:49:25;99748.63;;;24.70;64.06
7668;BME280;3876;42.204;24.686;2023-05-07T06:51:51;99754.09;;;24.67;62.22
7668;BME280;3876;42.204;24.686;2023-05-07T06:54:18;99751.31;;;24.59;62.87
7668;BME280;3876;42.204;24.686;2023-05-07T06:56:45;99751.56;;;24.55;61.63
7668;BME280;3876;42.204;24.686;2023-05-07T06:59:12;99762.75;;;24.15;62.48
7668;BME280;3876;42.204;24.686;2023-05-07T07:01:39;99755.38;;;24.09;64.50
7668;BME280;3876;42.204;24.686;2023-05-07T07:04:05;99746.63;;;24.30;64.08
7668;BME280;3876;42.204;24.686;2023-05-07T07:06:33;99746.16;;;24.57;63.20
7668;BME280;3876;42.204;24.686;2023-05-07T07:09:00;99744.25;;;24.27;63.07
7668;BME280;3876;42.204;24.686;2023-05-07T07:11:27;99751.31;;;24.04;63.02
7668;BME280;3876;42.204;24.686;2023-05-07T07:13:53;99752.91;;;23.85;63.50
7668;BME280;3876;42.204;24.686;2023-05-07T07:16:20;99754.81;;;23.94;62.39
7668;BME280;3876;42.204;24.686;2023-05-07T07:18:47;99749.81;;;23.69;65.60
7668;BME280;3876;42.204;24.686;2023-05-07T07:21:14;99747.56;;;23.86;63.04
7668;BME280;3876;42.204;24.686;2023-05-07T07:23:42;99760.16;;;23.81;64.34
7668;BME280;3876;42.204;24.686;2023-05-07T07:26:09;99753.53;;;23.77;68.09
7668;BME280;3876;42.204;24.686;2023-05-07T07:28:42;99754.66;;;24.18;65.43
7668;BME280;3876;42.204;24.686;2023-05-07T07:31:08;99764.94;;;23.76;64.65
7668;BME280;3876;42.204;24.686;2023-05-07T07:33:35;99764.47;;;23.93;64.73
7668;BME280;3876;42.204;24.686;2023-05-07T07:36:03;99756.34;;;23.85;64.63
7668;BME280;3876;42.204;24.686;2023-05-07T07:38:30;99763.03;;;24.00;65.59
7668;BME280;3876;42.204;24.686;2023-05-07T07:40:58;99762.25;;;24.32;64.00
7668;BME280;3876;42.204;24.686;2023-05-07T07:43:25;99761.31;;;24.33;61.77
7668;BME280;3876;42.204;24.686;2023-05-07T07:45:51;99747.69;;;24.39;62.78
7668;BME280;3876;42.204;24.686;2023-05-07T07:48:18;99760.81;;;24.60;62.95
7668;BME280;3876;42.204;24.686;2023-05-07T07:50:45;99763.69;;;24.56;63.30
7668;BME280;3876;42.204;24.686;2023-05-07T07:53:14;99759.19;;;24.16;64.62
7668;BME280;3876;42.204;24.686;2023-05-07T07:55:41;99754.03;;;24.25;64.16
7668;BME280;3876;42.204;24.686;2023-05-07T07:58:09;99745.47;;;24.55;64.20
7668;BME280;3876;42.204;24.686;2023-05-07T08:00:36;99760.44;;;24.96;63.74
7668;BME280;3876;42.204;24.686;2023-05-07T08:03:02;99753.63;;;25.14;62.63
7668;BME280;3876;42.204;24.686;2023-05-07T08:05:30;99760.06;;;25.31;61.44
7668;BME280;3876;42.204;24.686;2023-05-07T08:07:57;99756.47;;;25.52;62.40
7668;BME280;3876;42.204;24.686;2023-05-07T08:10:23;99763.31;;;25.74;62.46
7668;BME280;3876;42.204;24.686;2023-05-07T08:12:50;99756.56;;;25.81;61.14
7668;BME280;3876;42.204;24.686;2023-05-07T08:15:19;99748.47;;;25.54;59.75
7668;BME280;3876;42.204;24.686;2023-05-07T08:17:45;99748.84;;;25.49;60.19
7668;BME280;3876;42.204;24.686;2023-05-07T08:20:12;99745.72;;;25.35;59.40
7668;BME280;3876;42.204;24.686;2023-05-07T08:22:39;99743.97;;;25.15;61.49
7668;BME280;3876;42.204;24.686;2023-05-07T08:25:06;99745.69;;;25.25;59.05
7668;BME280;3876;42.204;24.686;2023-05-07T08:27:33;99734.19;;;25.17;58.90
7668;BME280;3876;42.204;24.686;2023-05-07T08:29:59;99732.06;;;25.11;63.27
7668;BME280;3876;42.204;24.686;2023-05-07T08:32:27;99738.69;;;24.73;61.29
7668;BME280;3876;42.204;24.686;2023-05-07T08:34:54;99740.31;;;24.85;62.80
7668;BME280;3876;42.204;24.686;2023-05-07T08:37:21;99735.59;;;25.00;60.73
7668;BME280;3876;42.204;24.686;2023-05-07T08:39:47;99732.78;;;25.13;61.60
7668;BME280;3876;42.204;24.686;2023-05-07T08:42:16;99719.81;;;25.21;62.20
7668;BME280;3876;42.204;24.686;2023-05-07T08:44:45;99729.78;;;25.27;61.93
7668;BME280;3876;42.204;24.686;2023-05-07T08:47:12;99713.19;;;25.17;60.68
7668;BME280;3876;42.204;24.686;2023-05-07T08:49:40;99731.38;;;25.39;60.35
7668;BME280;3876;42.204;24.686;2023-05-07T08:52:07;99728.84;;;25.58;58.08
7668;BME280;3876;42.204;24.686;2023-05-07T08:54:37;99722.97;;;25.45;58.92
7668;BME280;3876;42.204;24.686;2023-05-07T08:57:04;99722.09;;;25.04;58.89
7668;BME280;3876;42.204;24.686;2023-05-07T08:59:30;99727.06;;;25.07;60.66
7668;BME280;3876;42.204;24.686;2023-05-07T09:01:57;99735.25;;;25.44;61.23
7668;BME280;3876;42.204;24.686;2023-05-07T09:04:24;99724.66;;;25.46;58.11
7668;BME280;3876;42.204;24.686;2023-05-07T09:06:52;99718.41;;;24.86;56.46
7668;BME280;3876;42.204;24.686;2023-05-07T09:09:19;99713.41;;;24.83;55.48
7668;BME280;3876;42.204;24.686;2023-05-07T09:11:48;99716.06;;;24.72;57.38
7668;BME280;3876;42.204;24.686;2023-05-07T09:14:14;99715.00;;;24.75;58.07
7668;BME280;3876;42.204;24.686;2023-05-07T09:16:41;99708.78;;;24.96;57.50
7668;BME280;3876;42.204;24.686;2023-05-07T09:19:08;99709.13;;;24.82;57.04
7668;BME280;3876;42.204;24.686;2023-05-07T09:21:35;99705.44;;;24.53;58.82
7668;BME280;3876;42.204;24.686;2023-05-07T09:24:03;99709.06;;;24.93;57.82
7668;BME280;3876;42.204;24.686;2023-05-07T09:26:30;99709.56;;;24.87;57.17
7668;BME280;3876;42.204;24.686;2023-05-07T09:28:58;99699.00;;;24.98;56.32
7668;BME280;3876;42.204;24.686;2023-05-07T09:31:25;99701.25;;;24.82;51.86
7668;BME280;3876;42.204;24.686;2023-05-07T09:33:52;99703.28;;;24.99;52.87
7668;BME280;3876;42.204;24.686;2023-05-07T09:36:21;99700.81;;;25.07;51.77
7668;BME280;3876;42.204;24.686;2023-05-07T09:38:48;99704.25;;;25.29;51.30
7668;BME280;3876;42.204;24.686;2023-05-07T09:41:16;99707.78;;;25.18;50.96
7668;BME280;3876;42.204;24.686;2023-05-07T09:43:42;99701.72;;;25.18;52.13
7668;BME280;3876;42.204;24.686;2023-05-07T09:46:12;99686.00;;;25.27;53.02
7668;BME280;3876;42.204;24.686;2023-05-07T09:48:42;99691.47;;;25.45;52.05
7668;BME280;3876;42.204;24.686;2023-05-07T09:51:17;99681.16;;;25.53;55.50
7668;BME280;3876;42.204;24.686;2023-05-07T09:53:45;99681.50;;;25.39;51.58
7668;BME280;3876;42.204;24.686;2023-05-07T09:56:15;99668.75;;;25.55;54.55
7668;BME280;3876;42.204;24.686;2023-05-07T09:58:45;99687.16;;;25.34;49.50
7668;BME280;3876;42.204;24.686;2023-05-07T10:01:12;99673.66;;;25.48;51.43
7668;BME280;3876;42.204;24.686;2023-05-07T10:03:40;99684.00;;;25.80;53.08
7668;BME280;3876;42.204;24.686;2023-05-07T10:06:08;99677.03;;;25.60;49.60
7668;BME280;3876;42.204;24.686;2023-05-07T10:08:36;99677.72;;;25.22;50.54
7668;BME280;3876;42.204;24.686;2023-05-07T10:11:04;99671.47;;;25.14;49.74
7668;BME280;3876;42.204;24.686;2023-05-07T10:13:32;99650.47;;;24.83;49.53
7668;BME280;3876;42.204;24.686;2023-05-07T10:16:02;99659.78;;;24.97;50.53
7668;BME280;3876;42.204;24.686;2023-05-07T10:18:30;99656.69;;;25.13;50.09
7668;BME280;3876;42.204;24.686;2023-05-07T10:21:02;99661.38;;;24.88;49.68
7668;BME280;3876;42.204;24.686;2023-05-07T10:23:31;99662.28;;;24.98;51.69
7668;BME280;3876;42.204;24.686;2023-05-07T10:26:00;99648.94;;;25.11;51.64
7668;BME280;3876;42.204;24.686;2023-05-07T10:28:29;99653.94;;;25.24;51.29
7668;BME280;3876;42.204;24.686;2023-05-07T10:31:08;99655.66;;;25.34;51.07
7668;BME280;3876;42.204;24.686;2023-05-07T10:33:37;99645.38;;;25.22;51.48
7668;BME280;3876;42.204;24.686;2023-05-07T10:36:05;99648.09;;;25.11;51.11
7668;BME280;3876;42.204;24.686;2023-05-07T10:38:33;99644.44;;;24.92;49.82
7668;BME280;3876;42.204;24.686;2023-05-07T10:41:00;99641.97;;;24.91;51.32
7668;BME280;3876;42.204;24.686;2023-05-07T10:43:39;99619.91;;;25.03;52.55
7668;BME280;3876;42.204;24.686;2023-05-07T10:46:15;99607.41;;;24.86;51.08
7668;BME280;3876;42.204;24.686;2023-05-07T10:49:09;99628.50;;;25.15;51.64
7668;BME280;3876;42.204;24.686;2023-05-07T10:51:40;99621.13;;;25.39;52.34
7668;BME280;3876;42.204;24.686;2023-05-07T10:54:22;99621.75;;;25.52;50.76
7668;BME280;3876;42.204;24.686;2023-05-07T10:56:50;99616.78;;;25.58;48.13
7668;BME280;3876;42.204;24.686;2023-05-07T10:59:33;99621.69;;;25.33;50.56
7668;BME280;3876;42.204;24.686;2023-05-07T11:02:07;99624.47;;;25.11;49.18
7668;BME280;3876;42.204;24.686;2023-05-07T11:04:36;99609.72;;;25.10;49.45
7668;BME280;3876;42.204;24.686;2023-05-07T11:07:26;99610.19;;;25.34;50.44
7668;BME280;3876;42.204;24.686;2023-05-07T11:10:03;99616.44;;;25.33;50.27
7668;BME280;3876;42.204;24.686;2023-05-07T11:12:53;99610.63;;;25.29;50.14
7668;BME280;3876;42.204;24.686;2023-05-07T11:18:12;99612.22;;;25.21;46.91
7668;BME280;3876;42.204;24.686;2023-05-07T11:20:46;99618.41;;;25.00;47.57
7668;BME280;3876;42.204;24.686;2023-05-07T11:26:17;99606.69;;;25.14;46.64
7668;BME280;3876;42.204;24.686;2023-05-07T11:28:44;99610.31;;;25.23;49.50
7668;BME280;3876;42.204;24.686;2023-05-07T11:31:11;99592.63;;;25.25;46.92
7668;BME280;3876;42.204;24.686;2023-05-07T11:33:39;99601.19;;;25.27;49.33
7668;BME280;3876;42.204;24.686;2023-05-07T11:36:07;99596.94;;;25.26;47.90
7668;BME280;3876;42.204;24.686;2023-05-07T11:38:35;99602.66;;;25.50;46.03
7668;BME280;3876;42.204;24.686;2023-05-07T11:41:05;99595.91;;;25.57;46.74
7668;BME280;3876;42.204;24.686;2023-05-07T11:43:32;99605.41;;;25.48;44.65
7668;BME280;3876;42.204;24.686;2023-05-07T11:46:05;99606.03;;;25.22;44.68
7668;BME280;3876;42.204;24.686;2023-05-07T11:48:33;99599.28;;;25.29;47.05
7668;BME280;3876;42.204;24.686;2023-05-07T11:51:02;99592.63;;;25.25;46.93
7668;BME280;3876;42.204;24.686;2023-05-07T11:53:36;99588.28;;;25.04;46.15
7668;BME280;3876;42.204;24.686;2023-05-07T11:56:06;99594.50;;;25.03;45.57
7668;BME280;3876;42.204;24.686;2023-05-07T11:58:33;99584.78;;;24.94;46.03
7668;BME280;3876;42.204;24.686;2023-05-07T12:01:00;99546.06;;;24.77;46.01
7668;BME280;3876;42.204;24.686;2023-05-07T12:03:27;99588.31;;;25.14;46.62
7668;BME280;3876;42.204;24.686;2023-05-07T12:05:54;99590.59;;;25.38;44.69
7668;BME280;3876;42.204;24.686;2023-05-07T12:08:22;99593.22;;;25.47;45.46
7668;BME280;3876;42.204;24.686;2023-05-07T12:10:50;99590.19;;;25.42;46.22
7668;BME280;3876;42.204;24.686;2023-05-07T12:13:17;99591.09;;;25.62;47.13
7668;BME280;3876;42.204;24.686;2023-05-07T12:15:44;99590.19;;;25.42;45.49
7668;BME280;3876;42.204;24.686;2023-05-07T12:18:11;99574.50;;;25.12;44.21
7668;BME280;3876;42.204;24.686;2023-05-07T12:20:39;99571.59;;;25.05;45.88
7668;BME280;3876;42.204;24.686;2023-05-07T12:23:06;99570.81;;;25.24;45.47
7668;BME280;3876;42.204;24.686;2023-05-07T12:25:35;99559.25;;;25.36;46.41
7668;BME280;3876;42.204;24.686;2023-05-07T12:28:03;99552.31;;;25.26;47.19
7668;BME280;3876;42.204;24.686;2023-05-07T12:30:30;99562.84;;;25.45;46.12
7668;BME280;3876;42.204;24.686;2023-05-07T12:32:57;99559.03;;;25.68;46.19
7668;BME280;3876;42.204;24.686;2023-05-07T12:35:27;99564.00;;;25.90;45.82
7668;BME280;3876;42.204;24.686;2023-05-07T12:37:57;99559.84;;;26.07;45.03
7668;BME280;3876;42.204;24.686;2023-05-07T12:40:37;99549.44;;;26.25;44.02
7668;BME280;3876;42.204;24.686;2023-05-07T12:43:04;99548.75;;;26.32;46.86
7668;BME280;3876;42.204;24.686;2023-05-07T12:45:30;99549.97;;;26.38;46.56
7668;BME280;3876;42.204;24.686;2023-05-07T12:48:01;99558.38;;;26.51;43.66
7668;BME280;3876;42.204;24.686;2023-05-07T12:50:31;99549.44;;;26.25;45.06
7668;BME280;3876;42.204;24.686;2023-05-07T12:52:57;99536.03;;;26.08;44.25
7668;BME280;3876;42.204;24.686;2023-05-07T12:55:24;99538.25;;;26.13;45.74
7668;BME280;3876;42.204;24.686;2023-05-07T12:57:52;99543.94;;;25.89;45.65
7668;BME280;3876;42.204;24.686;2023-05-07T13:00:32;99536.75;;;25.91;42.63
7668;BME280;3876;42.204;24.686;2023-05-07T13:02:59;99545.06;;;25.77;45.32
7668;BME280;3876;42.204;24.686;2023-05-07T13:05:26;99534.13;;;25.72;43.84
7668;BME280;3876;42.204;24.686;2023-05-07T13:07:53;99534.28;;;25.71;43.09
7668;BME280;3876;42.204;24.686;2023-05-07T13:10:20;99535.25;;;25.70;45.42
7668;BME280;3876;42.204;24.686;2023-05-07T13:12:46;99528.88;;;25.53;45.45
7668;BME280;3876;42.204;24.686;2023-05-07T13:15:15;99537.47;;;25.84;44.84
7668;BME280;3876;42.204;24.686;2023-05-07T13:17:41;99528.03;;;26.00;45.87
7668;BME280;3876;42.204;24.686;2023-05-07T13:20:09;99529.84;;;26.00;43.73